createdAt,value
2022-09-25T00:00:59.590Z,76694.25
2022-09-25T00:03:43.447Z,76694.25
2022-09-25T00:06:16.368Z,76698.31
2022-09-25T00:08:43.746Z,76702.34
2022-09-25T00:11:13.516Z,76702.34
2022-09-25T00:13:41.923Z,76698.31
2022-09-25T00:16:14.807Z,76706.41
2022-09-25T00:19:01.305Z,76708.44
2022-09-25T00:21:31.324Z,76718.56
2022-09-25T00:24:00.948Z,76722.63
2022-09-25T00:26:29.757Z,76718.56
2022-09-25T00:28:57.845Z,76726.69
2022-09-25T00:31:25.152Z,76726.69
2022-09-25T00:33:52.538Z,76734.78
2022-09-25T00:36:20.053Z,76730.75
2022-09-25T00:38:48.496Z,76726.69
2022-09-25T00:41:18.204Z,76726.69
2022-09-25T00:43:48.849Z,76726.69
2022-09-25T00:46:42.633Z,76728.72
2022-09-25T00:49:09.931Z,76726.69
2022-09-25T00:51:54.613Z,76728.72
2022-09-25T00:54:21.852Z,76742.91
2022-09-25T00:56:51.551Z,76742.91
2022-09-25T00:59:27.604Z,76748.97
2022-09-25T01:01:55.601Z,76755.06
2022-09-25T01:04:23.253Z,76755.06
2022-09-25T01:06:50.900Z,76751.00
2022-09-25T01:09:18.968Z,76746.97
2022-09-25T01:11:46.239Z,76748.97
2022-09-25T01:14:17.457Z,76746.97
2022-09-25T01:17:01.051Z,76751.00
2022-09-25T01:19:46.863Z,76751.00
2022-09-25T01:22:44.430Z,76751.00
2022-09-25T01:25:36.337Z,76742.91
2022-09-25T01:28:37.165Z,76755.06
2022-09-25T01:31:13.463Z,76753.03
2022-09-25T01:33:46.721Z,76763.16
2022-09-25T01:36:33.901Z,76767.22
2022-09-25T01:39:11.141Z,76771.28
2022-09-25T01:41:42.034Z,76779.38
2022-09-25T01:44:31.845Z,76767.22
2022-09-25T01:47:11.419Z,76767.22
2022-09-25T01:50:00.814Z,76765.19
2022-09-25T01:52:35.790Z,76771.28
2022-09-25T01:55:20.143Z,76775.34
2022-09-25T01:57:53.598Z,76773.31
2022-09-25T02:00:23.165Z,76783.44
2022-09-25T02:02:55.857Z,76787.50
2022-09-25T02:05:31.031Z,76795.59
2022-09-25T02:08:05.422Z,76799.66
2022-09-25T02:10:55.968Z,76807.78
2022-09-25T02:13:27.030Z,76811.81
2022-09-25T02:15:57.459Z,76824.00
2022-09-25T02:18:43.925Z,76832.09
2022-09-25T02:21:37.412Z,76830.06
2022-09-25T02:24:20.937Z,76838.19
2022-09-25T02:26:48.744Z,76844.25
2022-09-25T02:29:15.948Z,76844.25
2022-09-25T02:31:53.941Z,76844.25
2022-09-25T02:34:22.306Z,76848.31
2022-09-25T02:36:49.398Z,76844.25
2022-09-25T02:39:19.087Z,76840.22
2022-09-25T02:42:18.359Z,76840.22
2022-09-25T02:45:10.018Z,76848.31
2022-09-25T02:47:47.706Z,76844.25
2022-09-25T02:50:20.643Z,76852.38
2022-09-25T02:53:23.693Z,76856.44
2022-09-25T02:56:05.422Z,76856.44
2022-09-25T02:58:37.745Z,76856.44
2022-09-25T03:01:08.275Z,76852.38
2022-09-25T03:03:38.322Z,76858.44
2022-09-25T03:06:07.927Z,76856.44
2022-09-25T03:08:38.136Z,76864.53
2022-09-25T03:11:08.114Z,76872.66
2022-09-25T03:13:35.825Z,76874.66
2022-09-25T03:16:08.614Z,76876.69
2022-09-25T03:18:35.708Z,76872.66
2022-09-25T03:21:04.226Z,76876.69
2022-09-25T03:23:32.402Z,76872.66
2022-09-25T03:25:59.766Z,76868.59
2022-09-25T03:28:27.265Z,76872.66
2022-09-25T03:31:02.416Z,76872.66
2022-09-25T03:33:33.386Z,76874.66
2022-09-25T03:36:02.292Z,76880.75
2022-09-25T03:38:29.082Z,76884.81
2022-09-25T03:40:56.135Z,76876.69
2022-09-25T03:43:23.070Z,76878.72
2022-09-25T03:45:49.968Z,76878.72
2022-09-25T03:48:17.775Z,76884.81
2022-09-25T03:50:46.213Z,76884.81
2022-09-25T03:53:13.002Z,76884.81
2022-09-25T03:55:40.006Z,76888.88
2022-09-25T03:58:06.849Z,76880.75
2022-09-25T04:00:33.831Z,76876.69
2022-09-25T04:03:01.160Z,76884.81
2022-09-25T04:05:28.000Z,76880.75
2022-09-25T04:07:54.931Z,76880.75
2022-09-25T04:10:22.079Z,76880.75
2022-09-25T04:12:53.241Z,76880.75
2022-09-25T04:15:24.208Z,76880.75
2022-09-25T04:17:55.049Z,76888.88
2022-09-25T04:20:22.544Z,76880.75
2022-09-25T04:22:49.477Z,76888.88
2022-09-25T04:25:19.556Z,76884.81
2022-09-25T04:27:50.389Z,76888.88
2022-09-25T04:30:17.449Z,76876.69
2022-09-25T04:33:02.745Z,76878.72
2022-09-25T04:35:29.754Z,76870.63
2022-09-25T04:37:56.563Z,76856.44
2022-09-25T04:40:23.400Z,76852.38
2022-09-25T04:42:58.921Z,76848.31
2022-09-25T04:45:26.789Z,76848.31
2022-09-25T04:47:54.537Z,76840.22
2022-09-25T04:50:25.591Z,76846.28
2022-09-25T04:52:52.900Z,76844.25
2022-09-25T04:55:24.816Z,76844.25
2022-09-25T04:57:59.780Z,76832.09
2022-09-25T05:00:29.954Z,76832.09
2022-09-25T05:02:57.245Z,76836.16
2022-09-25T05:05:28.407Z,76824.00
2022-09-25T05:07:57.423Z,76828.03
2022-09-25T05:10:30.315Z,76819.94
2022-09-25T05:13:02.607Z,76815.88
2022-09-25T05:15:31.849Z,76819.94
2022-09-25T05:18:15.270Z,76815.88
2022-09-25T05:20:42.071Z,76824.00
2022-09-25T05:23:09.528Z,76817.91
2022-09-25T05:25:36.510Z,76819.94
2022-09-25T05:28:03.408Z,76813.84
2022-09-25T05:30:33.305Z,76815.88
2022-09-25T05:33:00.272Z,76811.81
2022-09-25T05:35:29.522Z,76805.75
2022-09-25T05:37:56.702Z,76807.78
2022-09-25T05:40:24.226Z,76809.81
2022-09-25T05:42:52.209Z,76811.81
2022-09-25T05:45:21.490Z,76809.81
2022-09-25T05:47:48.349Z,76828.03
2022-09-25T05:50:16.970Z,76828.03
2022-09-25T05:52:44.000Z,76828.03
2022-09-25T05:55:11.485Z,76824.00
2022-09-25T05:57:39.023Z,76819.94
2022-09-25T06:00:11.651Z,76824.00
2022-09-25T06:02:41.453Z,76824.00
2022-09-25T06:05:10.091Z,76815.88
2022-09-25T06:07:37.357Z,76813.84
2022-09-25T06:10:04.523Z,76799.66
2022-09-25T06:12:31.983Z,76783.44
2022-09-25T06:14:59.025Z,76767.22
2022-09-25T06:17:25.853Z,76755.06
2022-09-25T06:19:52.866Z,76740.88
2022-09-25T06:22:20.041Z,76751.00
2022-09-25T06:24:48.750Z,76746.97
2022-09-25T06:27:15.925Z,76738.84
2022-09-25T06:29:42.750Z,76726.69
2022-09-25T06:32:09.615Z,76720.59
2022-09-25T06:34:36.654Z,76708.44
2022-09-25T06:37:03.508Z,76702.34
2022-09-25T06:39:33.264Z,76706.41
2022-09-25T06:42:00.342Z,76694.25
2022-09-25T06:44:28.289Z,76686.13
2022-09-25T06:46:55.200Z,76673.97
2022-09-25T06:49:22.495Z,76653.72
2022-09-25T06:51:51.114Z,76641.53
2022-09-25T06:54:18.211Z,76635.47
2022-09-25T06:56:49.506Z,76619.25
2022-09-25T06:59:17.125Z,76609.09
2022-09-25T07:01:44.022Z,76598.97
2022-09-25T07:04:11.371Z,76582.75
2022-09-25T07:06:38.340Z,76570.59
2022-09-25T07:09:05.475Z,76564.50
2022-09-25T07:11:32.572Z,76552.34
2022-09-25T07:13:59.650Z,76540.19
2022-09-25T07:16:28.798Z,76521.94
2022-09-25T07:18:58.502Z,76515.88
2022-09-25T07:21:27.806Z,76501.69
2022-09-25T07:23:54.761Z,76487.50
2022-09-25T07:26:25.278Z,76479.38
2022-09-25T07:28:55.234Z,76479.38
2022-09-25T07:31:26.136Z,76471.28
2022-09-25T07:33:53.722Z,76467.22
2022-09-25T07:36:21.006Z,76455.06
2022-09-25T07:38:52.441Z,76446.94
2022-09-25T07:41:22.266Z,76444.91
2022-09-25T07:44:17.673Z,76438.84
2022-09-25T07:46:44.517Z,76432.75
2022-09-25T07:49:12.172Z,76430.72
2022-09-25T07:51:39.306Z,76426.69
2022-09-25T07:54:06.871Z,76418.56
2022-09-25T07:56:38.385Z,76414.50
2022-09-25T07:59:05.506Z,76408.44
2022-09-25T08:01:32.703Z,76398.28
2022-09-25T08:03:59.967Z,76398.28
2022-09-25T08:06:26.770Z,76388.16
2022-09-25T08:08:53.673Z,76378.03
2022-09-25T08:11:20.683Z,76373.97
2022-09-25T08:13:47.556Z,76361.81
2022-09-25T08:16:17.525Z,76341.53
2022-09-25T08:18:46.812Z,76325.31
2022-09-25T08:21:19.246Z,76296.94
2022-09-25T08:23:52.531Z,76286.81
2022-09-25T08:26:21.522Z,76280.72
2022-09-25T08:28:50.697Z,76264.53
2022-09-25T08:31:17.960Z,76248.31
2022-09-25T08:33:46.552Z,76240.19
2022-09-25T08:36:14.313Z,76230.06
2022-09-25T08:38:41.217Z,76207.78
2022-09-25T08:41:15.179Z,76183.44
2022-09-25T08:43:49.505Z,76163.19
2022-09-25T08:46:59.280Z,76134.78
2022-09-25T08:49:30.833Z,76134.78
2022-09-25T08:52:02.931Z,76126.69
2022-09-25T08:54:32.420Z,76124.66
2022-09-25T08:57:08.780Z,76124.66
2022-09-25T08:59:39.203Z,76112.50
2022-09-25T09:02:19.667Z,76098.31
2022-09-25T09:04:56.920Z,76096.28
2022-09-25T09:07:29.886Z,76098.31
2022-09-25T09:10:11.063Z,76098.31
2022-09-25T09:12:44.749Z,76098.31
2022-09-25T09:15:39.146Z,76098.31
2022-09-25T09:18:18.981Z,76094.25
2022-09-25T09:20:58.508Z,76086.16
2022-09-25T09:23:34.393Z,76084.13
2022-09-25T09:26:03.099Z,76069.94
2022-09-25T09:28:56.808Z,76057.78
2022-09-25T09:31:51.689Z,76061.84
2022-09-25T09:35:01.298Z,76049.69
2022-09-25T09:37:50.449Z,76041.56
2022-09-25T09:40:47.273Z,76025.34
2022-09-25T09:43:23.137Z,76003.06
2022-09-25T09:46:15.391Z,76001.03
2022-09-25T09:49:06.989Z,75996.97
2022-09-25T09:51:54.184Z,75988.88
2022-09-25T09:54:30.133Z,75976.72
2022-09-25T09:56:57.858Z,75970.63
2022-09-25T09:59:31.549Z,75960.50
2022-09-25T10:02:03.295Z,75948.34
2022-09-25T10:04:36.216Z,75944.28
2022-09-25T10:07:13.715Z,75932.13
2022-09-25T10:09:40.775Z,75915.91
2022-09-25T10:12:15.215Z,75903.75
2022-09-25T10:14:45.840Z,75903.75
2022-09-25T10:17:12.905Z,75887.53
2022-09-25T10:19:54.223Z,75875.38
2022-09-25T10:22:26.005Z,75861.19
2022-09-25T10:25:01.983Z,75847.00
2022-09-25T10:27:46.363Z,75832.81
2022-09-25T10:30:20.430Z,75826.72
2022-09-25T10:33:01.278Z,75814.56
2022-09-25T10:35:41.602Z,75792.28
2022-09-25T10:38:39.304Z,75778.09
2022-09-25T10:41:12.220Z,75770.00
2022-09-25T10:43:55.420Z,75761.88
2022-09-25T10:46:52.598Z,75761.88
2022-09-25T10:49:43.775Z,75761.88
2022-09-25T10:52:16.131Z,75745.66
2022-09-25T10:54:45.569Z,75733.50
2022-09-25T10:57:38.452Z,75725.41
2022-09-25T11:00:27.051Z,75723.38
2022-09-25T11:03:00.902Z,75713.25
2022-09-25T11:05:31.847Z,75709.19
2022-09-25T11:08:02.793Z,75705.13
2022-09-25T11:10:36.290Z,75686.91
2022-09-25T11:13:28.558Z,75668.66
2022-09-25T11:16:01.106Z,75664.59
2022-09-25T11:18:45.625Z,75640.28
2022-09-25T11:21:49.226Z,75624.06
2022-09-25T11:24:26.546Z,75607.88
2022-09-25T11:27:18.402Z,75599.75
2022-09-25T11:29:54.639Z,75599.75
2022-09-25T11:32:59.732Z,75595.69
2022-09-25T11:35:57.842Z,75599.75
2022-09-25T11:39:04.444Z,75587.59
2022-09-25T11:41:53.341Z,75579.50
2022-09-25T11:44:54.406Z,75571.38
2022-09-25T11:47:28.353Z,75559.22
2022-09-25T11:49:58.890Z,75561.25
2022-09-25T11:52:28.725Z,75559.22
2022-09-25T11:55:34.634Z,75565.31
2022-09-25T11:58:14.783Z,75557.19
2022-09-25T12:01:18.893Z,75557.19
2022-09-25T12:03:46.421Z,75538.97
2022-09-25T12:06:22.134Z,75512.63
2022-09-25T12:09:10.253Z,75490.31
2022-09-25T12:11:55.264Z,75474.13
2022-09-25T12:14:46.925Z,75453.84
2022-09-25T12:17:28.894Z,75445.75
2022-09-25T12:20:33.883Z,75443.72
2022-09-25T12:23:19.097Z,75449.81
2022-09-25T12:25:55.066Z,75449.81
2022-09-25T12:28:28.070Z,75457.91
2022-09-25T12:31:07.556Z,75468.03
2022-09-25T12:33:44.389Z,75476.16
2022-09-25T12:36:20.842Z,75478.16
2022-09-25T12:39:01.600Z,75472.09
2022-09-25T12:41:51.551Z,75447.78
2022-09-25T12:44:43.779Z,75449.81
2022-09-25T12:48:00.167Z,75457.91
2022-09-25T12:50:34.040Z,75463.97
2022-09-25T12:53:24.981Z,75470.06
2022-09-25T12:56:19.047Z,75482.22
2022-09-25T12:59:05.716Z,75490.31
2022-09-25T13:02:09.634Z,75494.38
2022-09-25T13:04:42.558Z,75490.31
2022-09-25T13:07:25.177Z,75492.34
2022-09-25T13:09:52.373Z,75490.31
2022-09-25T13:12:33.442Z,75484.25
2022-09-25T13:15:08.826Z,75474.13
2022-09-25T13:17:37.242Z,75447.78
2022-09-25T13:20:28.874Z,75393.06
2022-09-25T13:23:01.560Z,75366.72
2022-09-25T13:25:30.161Z,75352.53
2022-09-25T13:28:07.527Z,75354.56
2022-09-25T13:30:35.109Z,75344.44
2022-09-25T13:33:04.093Z,75346.44
2022-09-25T13:35:32.988Z,75338.34
2022-09-25T13:38:38.847Z,75332.28
2022-09-25T13:41:12.020Z,75332.28
2022-09-25T13:43:39.330Z,75320.13
2022-09-25T13:46:21.480Z,75318.09
2022-09-25T13:48:52.193Z,75303.91
2022-09-25T13:51:21.895Z,75316.06
2022-09-25T13:54:03.062Z,75324.16
2022-09-25T13:56:42.022Z,75328.22
2022-09-25T13:59:13.857Z,75332.28
2022-09-25T14:01:41.576Z,75330.25
2022-09-25T14:04:14.946Z,75336.31
2022-09-25T14:06:44.792Z,75332.28
2022-09-25T14:09:17.735Z,75340.38
2022-09-25T14:11:55.773Z,75352.53
2022-09-25T14:14:31.068Z,75356.59
2022-09-25T14:16:59.783Z,75358.63
2022-09-25T14:19:31.374Z,75360.63
2022-09-25T14:22:00.372Z,75384.97
2022-09-25T14:24:29.755Z,75362.66
2022-09-25T14:27:02.169Z,75374.81
2022-09-25T14:29:37.727Z,75370.78
2022-09-25T14:32:50.198Z,75376.84
2022-09-25T14:35:25.114Z,75378.88
2022-09-25T14:37:54.885Z,75380.91
2022-09-25T14:40:33.419Z,75380.91
2022-09-25T14:43:23.944Z,75380.91
2022-09-25T14:46:12.771Z,75384.97
2022-09-25T14:49:02.365Z,75389.00
2022-09-25T14:51:43.753Z,75384.97
2022-09-25T14:54:16.281Z,75389.00
2022-09-25T14:56:48.866Z,75389.00
2022-09-25T14:59:24.648Z,75380.91
2022-09-25T15:01:52.968Z,75380.91
2022-09-25T15:04:34.647Z,75378.88
2022-09-25T15:07:14.250Z,75376.84
2022-09-25T15:09:49.543Z,75384.97
2022-09-25T15:12:30.523Z,75389.00
2022-09-25T15:15:12.144Z,75393.06
2022-09-25T15:17:53.078Z,75403.19
2022-09-25T15:20:23.100Z,75405.22
2022-09-25T15:22:57.776Z,75421.44
2022-09-25T15:25:32.997Z,75429.53
2022-09-25T15:28:00.651Z,75437.63
2022-09-25T15:30:28.417Z,75441.69
2022-09-25T15:33:00.487Z,75451.81
2022-09-25T15:35:29.471Z,75453.84
2022-09-25T15:38:12.607Z,75466.00
2022-09-25T15:40:41.569Z,75478.16
2022-09-25T15:43:16.273Z,75478.16
2022-09-25T15:46:33.390Z,75492.34
2022-09-25T15:49:00.622Z,75498.44
2022-09-25T15:51:30.572Z,75502.50
2022-09-25T15:54:04.096Z,75504.50
2022-09-25T15:56:44.386Z,75506.53
2022-09-25T15:59:23.281Z,75510.59
2022-09-25T16:02:09.947Z,75510.59
2022-09-25T16:04:40.598Z,75520.72
2022-09-25T16:07:40.855Z,75526.81
2022-09-25T16:10:10.575Z,75532.88
2022-09-25T16:12:41.943Z,75530.84
2022-09-25T16:15:43.536Z,75541.00
2022-09-25T16:18:13.440Z,75538.97
2022-09-25T16:20:41.902Z,75543.00
2022-09-25T16:23:31.362Z,75543.00
2022-09-25T16:25:58.677Z,75547.06
2022-09-25T16:28:29.242Z,75547.06
2022-09-25T16:31:01.679Z,75551.13
2022-09-25T16:33:34.802Z,75555.19
2022-09-25T16:36:16.931Z,75555.19
2022-09-25T16:39:10.116Z,75563.28
2022-09-25T16:41:40.351Z,75579.50
2022-09-25T16:44:32.648Z,75587.59
2022-09-25T16:46:59.468Z,75591.66
2022-09-25T16:49:26.677Z,75603.81
2022-09-25T16:51:55.453Z,75607.88
2022-09-25T16:54:30.822Z,75620.03
2022-09-25T16:56:59.417Z,75615.97
2022-09-25T16:59:28.339Z,75618.00
2022-09-25T17:02:05.020Z,75615.97
2022-09-25T17:04:35.840Z,75622.06
2022-09-25T17:07:02.797Z,75628.13
2022-09-25T17:09:31.440Z,75630.16
2022-09-25T17:12:07.493Z,75644.34
2022-09-25T17:14:35.857Z,75644.34
2022-09-25T17:17:03.259Z,75656.50
2022-09-25T17:19:30.032Z,75658.53
2022-09-25T17:21:57.865Z,75670.69
2022-09-25T17:24:27.182Z,75672.72
2022-09-25T17:26:54.764Z,75672.72
2022-09-25T17:29:22.763Z,75684.88
2022-09-25T17:31:49.684Z,75684.88
2022-09-25T17:34:18.850Z,75688.94
2022-09-25T17:36:46.132Z,75701.09
2022-09-25T17:39:13.299Z,75701.09
2022-09-25T17:41:40.576Z,75709.19
2022-09-25T17:44:12.285Z,75703.13
2022-09-25T17:46:39.103Z,75701.09
2022-09-25T17:49:07.097Z,75705.13
2022-09-25T17:51:34.714Z,75697.03
2022-09-25T17:54:02.571Z,75701.09
2022-09-25T17:56:29.669Z,75695.00
2022-09-25T17:58:57.907Z,75695.00
2022-09-25T18:01:27.787Z,75699.06
2022-09-25T18:03:59.836Z,75697.03
2022-09-25T18:06:29.051Z,75692.97
2022-09-25T18:08:56.705Z,75695.00
2022-09-25T18:11:25.487Z,75701.09
2022-09-25T18:14:01.203Z,75692.97
2022-09-25T18:16:31.148Z,75692.97
2022-09-25T18:19:17.412Z,75692.97
2022-09-25T18:22:02.880Z,75701.09
2022-09-25T18:24:30.319Z,75692.97
2022-09-25T18:26:58.049Z,75697.03
2022-09-25T18:29:25.049Z,75688.94
2022-09-25T18:31:52.784Z,75692.97
2022-09-25T18:34:21.796Z,75692.97
2022-09-25T18:36:49.996Z,75695.00
2022-09-25T18:39:20.491Z,75695.00
2022-09-25T18:41:48.302Z,75692.97
2022-09-25T18:44:17.802Z,75701.09
2022-09-25T18:46:45.056Z,75697.03
2022-09-25T18:49:11.888Z,75699.06
2022-09-25T18:51:38.742Z,75701.09
2022-09-25T18:54:06.164Z,75692.97
2022-09-25T18:56:34.659Z,75692.97
2022-09-25T18:59:05.496Z,75692.97
2022-09-25T19:01:34.711Z,75684.88
2022-09-25T19:04:02.038Z,75688.94
2022-09-25T19:06:28.850Z,75688.94
2022-09-25T19:08:57.848Z,75684.88
2022-09-25T19:11:26.383Z,75680.81
2022-09-25T19:13:53.720Z,75680.81
2022-09-25T19:16:21.552Z,75688.94
2022-09-25T19:18:50.189Z,75684.88
2022-09-25T19:21:22.329Z,75684.88
2022-09-25T19:23:49.917Z,75680.81
2022-09-25T19:26:20.955Z,75684.88
2022-09-25T19:28:48.896Z,75686.91
2022-09-25T19:31:22.417Z,75684.88
2022-09-25T19:33:50.789Z,75688.94
2022-09-25T19:36:24.221Z,75684.88
2022-09-25T19:38:51.297Z,75684.88
2022-09-25T19:41:19.723Z,75688.94
2022-09-25T19:43:46.715Z,75688.94
2022-09-25T19:46:17.420Z,75688.94
2022-09-25T19:48:46.086Z,75692.97
2022-09-25T19:51:14.125Z,75705.13
2022-09-25T19:53:42.087Z,75711.22
2022-09-25T19:56:10.301Z,75713.25
2022-09-25T19:58:40.907Z,75727.44
2022-09-25T20:01:13.451Z,75741.63
2022-09-25T20:03:41.994Z,75749.72
2022-09-25T20:06:09.936Z,75761.88
2022-09-25T20:08:37.771Z,75761.88
2022-09-25T20:11:19.546Z,75782.16
2022-09-25T20:13:47.865Z,75794.31
2022-09-25T20:16:18.937Z,75816.59
2022-09-25T20:18:50.559Z,75818.63
2022-09-25T20:21:21.150Z,75830.78
2022-09-25T20:23:58.903Z,75834.84
2022-09-25T20:26:26.846Z,75834.84
2022-09-25T20:29:01.817Z,75830.78
2022-09-25T20:31:32.437Z,75830.78
2022-09-25T20:33:59.451Z,75842.94
2022-09-25T20:36:27.227Z,75838.91
2022-09-25T20:38:56.121Z,75842.94
2022-09-25T20:41:25.015Z,75851.06
2022-09-25T20:43:54.973Z,75855.09
2022-09-25T20:46:23.940Z,75859.16
2022-09-25T20:48:52.781Z,75863.22
2022-09-25T20:51:26.980Z,75871.31
2022-09-25T20:53:57.159Z,75879.44
2022-09-25T20:56:24.485Z,75877.41
2022-09-25T20:58:53.457Z,75883.47
2022-09-25T21:01:23.275Z,75887.53
2022-09-25T21:03:52.010Z,75887.53
2022-09-25T21:06:24.682Z,75895.66
2022-09-25T21:08:53.613Z,75899.69
2022-09-25T21:11:21.613Z,75907.81
2022-09-25T21:13:53.613Z,75911.84
2022-09-25T21:16:22.263Z,75919.97
2022-09-25T21:19:00.777Z,75924.00
2022-09-25T21:21:28.906Z,75926.03
2022-09-25T21:23:57.549Z,75932.13
2022-09-25T21:26:28.090Z,75924.00
2022-09-25T21:28:58.141Z,75932.13
2022-09-25T21:31:34.759Z,75940.22
2022-09-25T21:34:02.249Z,75944.28
2022-09-25T21:36:30.100Z,75940.22
2022-09-25T21:38:56.986Z,75942.25
2022-09-25T21:41:26.028Z,75942.25
2022-09-25T21:44:02.607Z,75948.34
2022-09-25T21:46:30.153Z,75944.28
2022-09-25T21:48:59.833Z,75948.34
2022-09-25T21:51:32.454Z,75956.44
2022-09-25T21:54:01.198Z,75956.44
2022-09-25T21:56:30.115Z,75948.34
2022-09-25T21:58:58.077Z,75952.38
2022-09-25T22:01:32.237Z,75954.41
2022-09-25T22:03:59.975Z,75940.22
2022-09-25T22:06:33.616Z,75942.25
2022-09-25T22:09:05.234Z,75942.25
2022-09-25T22:11:32.839Z,75932.13
2022-09-25T22:14:00.235Z,75940.22
2022-09-25T22:16:33.365Z,75932.13
2022-09-25T22:19:10.827Z,75932.13
2022-09-25T22:21:38.161Z,75946.31
2022-09-25T22:24:06.096Z,75940.22
2022-09-25T22:26:39.063Z,75948.34
2022-09-25T22:29:07.026Z,75948.34
2022-09-25T22:31:35.300Z,75956.44
2022-09-25T22:34:05.854Z,75952.38
2022-09-25T22:36:35.966Z,75948.34
2022-09-25T22:39:04.546Z,75956.44
2022-09-25T22:41:31.865Z,75960.50
2022-09-25T22:44:00.935Z,75964.56
2022-09-25T22:46:28.676Z,75964.56
2022-09-25T22:48:56.226Z,75972.66
2022-09-25T22:51:26.216Z,75976.72
2022-09-25T22:53:54.507Z,75970.63
2022-09-25T22:56:26.133Z,75976.72
2022-09-25T22:58:59.595Z,75984.81
2022-09-25T23:01:32.043Z,75980.75
2022-09-25T23:04:03.544Z,75990.91
2022-09-25T23:06:33.267Z,75990.91
2022-09-25T23:09:03.395Z,75996.97
2022-09-25T23:11:31.133Z,75992.94
2022-09-25T23:14:06.358Z,75996.97
2022-09-25T23:16:34.211Z,75984.81
2022-09-25T23:19:01.600Z,75982.78
2022-09-25T23:21:29.918Z,75976.72
2022-09-25T23:24:17.589Z,75980.75
2022-09-25T23:26:45.873Z,75984.81
2022-09-25T23:29:15.682Z,75984.81
2022-09-25T23:31:42.888Z,75980.75
2022-09-25T23:34:10.595Z,75984.81
2022-09-25T23:36:38.206Z,75988.88
2022-09-25T23:39:06.439Z,75984.81
2022-09-25T23:41:35.996Z,75986.84
2022-09-25T23:44:05.409Z,75992.94
2022-09-25T23:46:35.130Z,75984.81
2022-09-25T23:49:02.613Z,75988.88
2022-09-25T23:51:29.812Z,75984.81
2022-09-25T23:53:58.116Z,75982.78
2022-09-25T23:56:27.487Z,75988.88
2022-09-25T23:58:56.612Z,75988.88
